createdAt,value
2023-04-25T00:02:43.959Z,100074.16
2023-04-25T00:05:29.486Z,100076.72
2023-04-25T00:08:14.827Z,100071.59
2023-04-25T00:11:00.363Z,100078.66
2023-04-25T00:13:45.793Z,100083.63
2023-04-25T00:16:31.728Z,100084.63
2023-04-25T00:19:17.410Z,100089.66
2023-04-25T00:22:03.274Z,100093.13
2023-04-25T00:24:48.538Z,100091.25
2023-04-25T00:27:34.234Z,100090.47
2023-04-25T00:30:19.590Z,100102.53
2023-04-25T00:33:05.275Z,100098.94
2023-04-25T00:35:50.358Z,100100.75
2023-04-25T00:38:35.539Z,100105.81
2023-04-25T00:41:20.872Z,100104.09
2023-04-25T00:44:08.071Z,100097.97
2023-04-25T00:46:55.197Z,100102.25
2023-04-25T00:49:40.306Z,100097.09
2023-04-25T00:52:25.516Z,100102.16
2023-04-25T00:55:12.837Z,100102.94
2023-04-25T00:57:58.524Z,100095.25
2023-04-25T01:00:46.147Z,100103.72
2023-04-25T01:03:34.247Z,100103.56
2023-04-25T01:06:20.194Z,100105.41
2023-04-25T01:09:05.506Z,100115.88
2023-04-25T01:11:51.076Z,100116.41
2023-04-25T01:14:36.178Z,100125.03
2023-04-25T01:17:21.416Z,100118.81
2023-04-25T01:20:07.397Z,100116.25
2023-04-25T01:22:53.578Z,100119.06
2023-04-25T01:25:39.526Z,100124.72
2023-04-25T01:28:25.003Z,100117.81
2023-04-25T01:31:10.171Z,100119.28
2023-04-25T01:33:55.719Z,100125.19
2023-04-25T01:36:41.155Z,100113.13
2023-04-25T01:39:26.629Z,100119.88
2023-04-25T01:42:13.747Z,100124.41
2023-04-25T01:44:59.088Z,100129.53
2023-04-25T01:47:45.346Z,100136.22
2023-04-25T01:50:30.843Z,100142.09
2023-04-25T01:53:16.304Z,100135.25
2023-04-25T01:56:01.552Z,100142.53
2023-04-25T01:58:47.540Z,100142.22
2023-04-25T02:01:33.023Z,100149.47
2023-04-25T02:04:18.615Z,100138.94
2023-04-25T02:07:04.697Z,100137.25
2023-04-25T02:09:49.672Z,100145.59
2023-04-25T02:12:34.861Z,100152.00
2023-04-25T02:15:19.894Z,100155.06
2023-04-25T02:18:04.910Z,100154.44
2023-04-25T02:20:50.091Z,100156.84
2023-04-25T02:23:35.265Z,100161.41
2023-04-25T02:26:20.735Z,100163.22
2023-04-25T02:29:05.926Z,100167.94
2023-04-25T02:31:51.487Z,100164.75
2023-04-25T02:34:36.828Z,100166.63
2023-04-25T02:37:22.403Z,100177.69
2023-04-25T02:40:08.396Z,100172.59
2023-04-25T02:42:53.635Z,100173.81
2023-04-25T02:45:39.000Z,100169.47
2023-04-25T02:48:23.942Z,100174.59
2023-04-25T02:51:09.268Z,100177.47
2023-04-25T02:53:54.765Z,100182.75
2023-04-25T02:56:40.199Z,100177.47
2023-04-25T02:59:25.516Z,100174.91
2023-04-25T03:02:11.059Z,100170.59
2023-04-25T03:04:56.061Z,100180.09
2023-04-25T03:07:41.509Z,100180.19
2023-04-25T03:10:27.161Z,100186.47
2023-04-25T03:13:12.116Z,100182.06
2023-04-25T03:15:57.359Z,100187.53
2023-04-25T03:18:42.648Z,100186.91
2023-04-25T03:21:28.099Z,100189.63
2023-04-25T03:24:14.834Z,100194.91
2023-04-25T03:27:00.096Z,100194.81
2023-04-25T03:29:45.319Z,100193.50
2023-04-25T03:32:30.805Z,100192.88
2023-04-25T03:35:16.444Z,100192.31
2023-04-25T03:38:01.592Z,100188.69
2023-04-25T03:40:46.592Z,100195.53
2023-04-25T03:43:31.878Z,100202.69
2023-04-25T03:46:17.296Z,100201.81
2023-04-25T03:49:02.794Z,100208.00
2023-04-25T03:51:48.209Z,100208.63
2023-04-25T03:54:33.590Z,100209.78
2023-04-25T03:57:18.934Z,100210.47
2023-04-25T04:00:04.475Z,100218.53
2023-04-25T04:02:50.077Z,100213.56
2023-04-25T04:05:35.400Z,100214.09
2023-04-25T04:08:20.806Z,100211.50
2023-04-25T04:11:05.812Z,100221.00
2023-04-25T04:13:51.382Z,100224.31
2023-04-25T04:16:36.897Z,100225.44
2023-04-25T04:19:22.042Z,100226.97
2023-04-25T04:22:07.626Z,100229.13
2023-04-25T04:24:53.080Z,100226.06
2023-04-25T04:27:38.633Z,100226.72
2023-04-25T04:30:25.185Z,100234.34
2023-04-25T04:33:10.393Z,100225.63
2023-04-25T04:35:56.000Z,100236.50
2023-04-25T04:38:41.999Z,100240.56
2023-04-25T04:41:27.202Z,100246.75
2023-04-25T04:44:12.734Z,100246.41
2023-04-25T04:46:57.965Z,100256.78
2023-04-25T04:49:43.343Z,100250.59
2023-04-25T04:52:28.642Z,100251.13
2023-04-25T04:55:13.575Z,100253.84
2023-04-25T04:57:58.987Z,100248.09
2023-04-25T05:00:44.019Z,100248.97
2023-04-25T05:03:29.856Z,100260.47
2023-04-25T05:06:15.032Z,100258.81
2023-04-25T05:09:00.522Z,100261.63
2023-04-25T05:11:45.373Z,100263.72
2023-04-25T05:14:30.599Z,100267.44
2023-04-25T05:17:15.778Z,100267.44
2023-04-25T05:20:01.443Z,100261.91
2023-04-25T05:22:46.386Z,100272.34
2023-04-25T05:25:31.963Z,100261.97
2023-04-25T05:28:17.390Z,100270.03
2023-04-25T05:31:03.010Z,100272.28
2023-04-25T05:33:48.461Z,100269.19
2023-04-25T05:36:33.901Z,100263.47
2023-04-25T05:39:19.250Z,100268.41
2023-04-25T05:42:04.544Z,100269.50
2023-04-25T05:44:49.640Z,100275.84
2023-04-25T05:47:35.124Z,100280.00
2023-04-25T05:50:20.577Z,100281.09
2023-04-25T05:53:05.933Z,100277.41
2023-04-25T05:55:50.975Z,100280.91
2023-04-25T05:58:36.380Z,100290.66
2023-04-25T06:01:22.608Z,100283.50
2023-04-25T06:04:07.830Z,100289.94
2023-04-25T06:06:53.161Z,100291.97
2023-04-25T06:09:38.640Z,100284.63
2023-04-25T06:12:23.570Z,100283.31
2023-04-25T06:15:20.087Z,100274.81
2023-04-25T06:18:12.519Z,100271.69
2023-04-25T06:20:57.848Z,100275.75
2023-04-25T06:23:43.387Z,100270.63
2023-04-25T06:26:28.432Z,100258.13
2023-04-25T06:29:13.954Z,100244.84
2023-04-25T06:31:59.430Z,100251.03
2023-04-25T06:34:44.474Z,100239.53
2023-04-25T06:37:29.558Z,100235.19
2023-04-25T06:40:15.150Z,100246.88
2023-04-25T06:43:00.443Z,100253.03
2023-04-25T06:45:47.709Z,100241.97
2023-04-25T06:48:33.451Z,100226.84
2023-04-25T06:51:18.916Z,100216.03
2023-04-25T06:54:03.988Z,100224.75
2023-04-25T06:56:49.278Z,100216.16
2023-04-25T06:59:34.591Z,100217.03
2023-04-25T07:02:20.128Z,100217.00
2023-04-25T07:05:05.640Z,100208.75
2023-04-25T07:07:50.758Z,100224.88
2023-04-25T07:10:35.846Z,100213.19
2023-04-25T07:13:21.342Z,100206.63
2023-04-25T07:16:06.970Z,100213.59
2023-04-25T07:18:52.134Z,100197.38
2023-04-25T07:21:37.563Z,100193.25
2023-04-25T07:24:22.983Z,100185.50
2023-04-25T07:27:08.091Z,100203.69
2023-04-25T07:29:53.046Z,100196.31
2023-04-25T07:32:39.518Z,100193.94
2023-04-25T07:35:24.751Z,100215.19
2023-04-25T07:38:10.151Z,100201.34
2023-04-25T07:40:55.163Z,100213.91
2023-04-25T07:43:40.557Z,100196.22
2023-04-25T07:46:26.080Z,100190.22
2023-04-25T07:49:11.219Z,100210.53
2023-04-25T07:51:56.391Z,100157.59
2023-04-25T07:54:41.815Z,100167.63
2023-04-25T07:57:27.140Z,100138.50
2023-04-25T08:00:12.775Z,100127.56
2023-04-25T08:02:58.108Z,100125.06
2023-04-25T08:05:43.812Z,100129.13
2023-04-25T08:08:29.304Z,100123.16
2023-04-25T08:11:14.730Z,100103.75
2023-04-25T08:14:00.215Z,100137.53
2023-04-25T08:16:45.753Z,100152.78
2023-04-25T08:19:31.700Z,100150.63
2023-04-25T08:22:17.151Z,100160.28
2023-04-25T08:25:02.506Z,100131.09
2023-04-25T08:27:47.727Z,100143.69
2023-04-25T08:30:33.148Z,100102.22
2023-04-25T08:33:18.663Z,100068.16
2023-04-25T08:36:04.161Z,100090.72
2023-04-25T08:38:49.699Z,100073.75
2023-04-25T08:41:37.900Z,100078.94
2023-04-25T08:44:23.222Z,100112.78
2023-04-25T08:47:08.312Z,100101.63
2023-04-25T08:49:54.916Z,100071.44
2023-04-25T08:52:47.855Z,100061.00
2023-04-25T08:55:34.084Z,100089.63
2023-04-25T08:58:20.374Z,100141.38
2023-04-25T09:01:05.722Z,100111.78
2023-04-25T09:03:51.368Z,100137.16
2023-04-25T09:06:37.018Z,100121.16
2023-04-25T09:09:22.611Z,100107.31
2023-04-25T09:12:08.217Z,100141.53
2023-04-25T09:15:07.689Z,100103.34
2023-04-25T09:18:00.191Z,100065.88
2023-04-25T09:21:00.945Z,100064.81
2023-04-25T09:23:49.413Z,100076.47
2023-04-25T09:26:34.757Z,100101.81
2023-04-25T09:29:30.145Z,100134.81
2023-04-25T09:32:16.774Z,100041.22
2023-04-25T09:35:02.376Z,100034.16
2023-04-25T09:37:47.305Z,100124.19
2023-04-25T09:40:33.027Z,100169.38
2023-04-25T09:43:23.033Z,100120.91
2023-04-25T09:46:10.484Z,100053.31
2023-04-25T09:48:55.882Z,100083.09
2023-04-25T09:51:41.362Z,100102.84
2023-04-25T09:54:26.873Z,100129.31
2023-04-25T09:57:18.271Z,100134.78
2023-04-25T10:00:03.854Z,100149.84
2023-04-25T10:02:51.125Z,100144.28
2023-04-25T10:05:38.174Z,100179.00
2023-04-25T10:08:24.105Z,100205.06
2023-04-25T10:11:09.990Z,100242.16
2023-04-25T10:13:56.977Z,100250.69
2023-04-25T10:16:43.379Z,100285.31
2023-04-25T10:19:29.339Z,100297.66
2023-04-25T10:22:30.406Z,100281.44
2023-04-25T10:25:16.008Z,100269.34
2023-04-25T10:28:01.407Z,100252.94
2023-04-25T10:31:04.348Z,100215.72
2023-04-25T10:33:49.856Z,100246.63
2023-04-25T10:36:35.251Z,100291.78
2023-04-25T10:39:25.767Z,100265.38
2023-04-25T10:42:10.964Z,100227.28
2023-04-25T10:45:06.376Z,100246.19
2023-04-25T10:47:53.038Z,100273.47
2023-04-25T10:50:39.403Z,100331.56
2023-04-25T10:53:25.643Z,100342.44
2023-04-25T10:56:21.040Z,100280.25
2023-04-25T10:59:18.167Z,100280.69
2023-04-25T11:02:12.821Z,100286.22
2023-04-25T11:04:58.119Z,100236.28
2023-04-25T11:08:06.312Z,100276.41
2023-04-25T11:10:53.597Z,100252.13
2023-04-25T11:13:38.881Z,100222.72
2023-04-25T11:16:28.433Z,100231.88
2023-04-25T11:19:14.006Z,100217.59
2023-04-25T11:22:00.989Z,100262.28
2023-04-25T11:24:46.641Z,100246.44
2023-04-25T11:27:31.764Z,100299.47
2023-04-25T11:30:18.305Z,100281.53
2023-04-25T11:33:03.893Z,100309.47
2023-04-25T11:35:49.225Z,100265.47
2023-04-25T11:38:35.302Z,100253.97
2023-04-25T11:41:21.423Z,100252.63
2023-04-25T11:44:06.872Z,100305.69
2023-04-25T11:46:52.208Z,100280.78
2023-04-25T11:49:37.840Z,100287.06
2023-04-25T11:52:23.776Z,100301.88
2023-04-25T11:55:20.224Z,100293.03
2023-04-25T11:58:06.087Z,100274.44
2023-04-25T12:00:51.363Z,100303.50
2023-04-25T12:03:47.054Z,100307.72
2023-04-25T12:06:33.542Z,100326.41
2023-04-25T12:09:29.082Z,100379.06
2023-04-25T12:12:14.341Z,100294.78
2023-04-25T12:15:10.006Z,100253.34
2023-04-25T12:17:55.733Z,100238.41
2023-04-25T12:20:42.689Z,100178.84
2023-04-25T12:23:28.544Z,100275.41
2023-04-25T12:26:15.306Z,100298.97
2023-04-25T12:29:00.772Z,100289.47
2023-04-25T12:31:46.285Z,100332.03
2023-04-25T12:34:33.401Z,100282.22
2023-04-25T12:37:18.877Z,100297.34
2023-04-25T12:40:04.443Z,100249.88
2023-04-25T12:42:49.848Z,100222.00
2023-04-25T12:45:34.969Z,100232.97
2023-04-25T12:48:21.359Z,100161.28
2023-04-25T12:51:06.390Z,100164.56
2023-04-25T12:53:52.074Z,100251.25
2023-04-25T12:56:37.338Z,100306.97
2023-04-25T12:59:22.660Z,100265.47
2023-04-25T13:02:07.997Z,100255.06
2023-04-25T13:04:53.257Z,100254.81
2023-04-25T13:07:38.797Z,100234.88
2023-04-25T13:10:23.787Z,100223.91
2023-04-25T13:13:09.112Z,100273.22
2023-04-25T13:15:54.189Z,100193.63
2023-04-25T13:18:39.791Z,100214.38
2023-04-25T13:21:25.076Z,100260.25
2023-04-25T13:24:09.858Z,100268.88
2023-04-25T13:26:55.317Z,100210.06
2023-04-25T13:29:40.876Z,100283.81
2023-04-25T13:32:26.284Z,100342.00
2023-04-25T13:35:13.775Z,100360.28
2023-04-25T13:37:59.477Z,100378.06
2023-04-25T13:40:44.816Z,100423.16
2023-04-25T13:43:29.817Z,100418.16
2023-04-25T13:46:30.030Z,100437.94
2023-04-25T13:49:20.717Z,100420.22
2023-04-25T13:52:06.085Z,100376.31
2023-04-25T13:54:51.320Z,100378.88
2023-04-25T13:57:38.656Z,100385.81
2023-04-25T14:00:24.793Z,100355.09
2023-04-25T14:03:10.484Z,100349.59
2023-04-25T14:05:56.005Z,100358.34
2023-04-25T14:08:41.057Z,100373.41
2023-04-25T14:11:26.629Z,100392.22
2023-04-25T14:14:11.915Z,100384.97
2023-04-25T14:16:57.469Z,100435.78
2023-04-25T14:19:43.108Z,100419.97
2023-04-25T14:22:28.445Z,100436.72
2023-04-25T14:25:13.709Z,100470.56
2023-04-25T14:27:58.891Z,100559.16
2023-04-25T14:30:45.543Z,100615.25
2023-04-25T14:33:30.939Z,100638.81
2023-04-25T14:36:16.475Z,100656.50
2023-04-25T14:39:01.790Z,100665.41
2023-04-25T14:41:47.002Z,100679.41
2023-04-25T14:44:32.561Z,100677.13
2023-04-25T14:47:17.933Z,100687.81
2023-04-25T14:50:03.893Z,100690.91
2023-04-25T14:52:49.158Z,100680.06
2023-04-25T14:55:34.467Z,100678.28
2023-04-25T14:58:19.679Z,100671.16
2023-04-25T15:01:05.220Z,100665.41
2023-04-25T15:03:51.469Z,100657.03
2023-04-25T15:06:37.042Z,100662.38
2023-04-25T15:09:22.293Z,100664.16
2023-04-25T15:12:08.272Z,100657.78
2023-04-25T15:14:53.815Z,100657.00
2023-04-25T15:17:41.678Z,100642.06
2023-04-25T15:20:27.279Z,100623.78
2023-04-25T15:23:12.557Z,100605.09
2023-04-25T15:25:58.403Z,100579.66
2023-04-25T15:28:43.786Z,100599.34
2023-04-25T15:31:29.220Z,100584.66
2023-04-25T15:34:14.704Z,100551.50
2023-04-25T15:37:00.119Z,100528.88
2023-04-25T15:39:45.557Z,100543.47
2023-04-25T15:42:31.443Z,100548.91
2023-04-25T15:45:19.032Z,100561.75
2023-04-25T15:48:05.149Z,100584.91
2023-04-25T15:50:50.733Z,100600.94
2023-04-25T15:53:36.123Z,100618.19
2023-04-25T15:56:21.576Z,100664.41
2023-04-25T15:59:07.153Z,100701.78
2023-04-25T16:01:52.813Z,100720.88
2023-04-25T16:04:38.385Z,100719.38
2023-04-25T16:07:23.933Z,100715.16
2023-04-25T16:10:10.712Z,100735.47
2023-04-25T16:12:56.065Z,100719.34
2023-04-25T16:15:41.869Z,100721.16
2023-04-25T16:18:27.562Z,100717.19
2023-04-25T16:21:12.643Z,100710.63
2023-04-25T16:23:58.503Z,100716.00
2023-04-25T16:26:44.149Z,100707.63
2023-04-25T16:29:29.836Z,100709.03
2023-04-25T16:32:15.014Z,100707.41
2023-04-25T16:35:01.060Z,100712.19
2023-04-25T16:37:46.552Z,100711.47
2023-04-25T16:40:31.373Z,100712.72
2023-04-25T16:43:16.394Z,100708.50
2023-04-25T16:46:01.661Z,100695.59
2023-04-25T16:48:46.784Z,100689.88
2023-04-25T16:51:32.713Z,100686.13
2023-04-25T16:54:17.844Z,100688.56
2023-04-25T16:57:03.235Z,100673.78
2023-04-25T16:59:48.627Z,100673.97
2023-04-25T17:02:33.723Z,100663.44
2023-04-25T17:05:19.059Z,100619.94
2023-04-25T17:08:04.731Z,100632.38
2023-04-25T17:10:50.594Z,100599.72
2023-04-25T17:13:36.113Z,100581.25
2023-04-25T17:16:21.511Z,100569.28
2023-04-25T17:19:07.118Z,100547.50
2023-04-25T17:21:52.486Z,100514.50
2023-04-25T17:24:37.966Z,100514.75
2023-04-25T17:27:22.909Z,100506.16
2023-04-25T17:30:08.775Z,100502.53
2023-04-25T17:32:53.881Z,100506.63
2023-04-25T17:35:39.237Z,100506.69
2023-04-25T17:38:24.200Z,100512.69
2023-04-25T17:41:10.424Z,100508.97
2023-04-25T17:43:55.782Z,100504.63
2023-04-25T17:46:41.243Z,100507.38
2023-04-25T17:49:26.905Z,100510.47
2023-04-25T17:52:12.301Z,100503.28
2023-04-25T17:54:57.721Z,100530.69
2023-04-25T17:57:43.238Z,100544.41
2023-04-25T18:00:28.508Z,100552.75
2023-04-25T18:03:14.374Z,100571.63
2023-04-25T18:05:59.502Z,100577.38
2023-04-25T18:08:44.924Z,100588.94
2023-04-25T18:11:30.107Z,100595.50
2023-04-25T18:14:15.773Z,100605.59
2023-04-25T18:17:00.968Z,100617.44
2023-04-25T18:19:50.150Z,100621.25
2023-04-25T18:22:37.187Z,100638.22
2023-04-25T18:25:22.772Z,100653.63
2023-04-25T18:28:08.160Z,100672.41
2023-04-25T18:30:53.393Z,100688.28
2023-04-25T18:33:38.346Z,100696.88
2023-04-25T18:36:23.403Z,100713.19
2023-04-25T18:39:19.454Z,100725.00
2023-04-25T18:42:07.844Z,100740.34
2023-04-25T18:44:52.737Z,100743.22
2023-04-25T18:47:38.257Z,100752.56
2023-04-25T18:50:23.529Z,100747.56
2023-04-25T18:53:08.465Z,100757.88
2023-04-25T18:55:53.324Z,100759.69
2023-04-25T18:58:39.107Z,100772.53
2023-04-25T19:01:25.316Z,100777.50
2023-04-25T19:04:10.862Z,100779.13
2023-04-25T19:06:55.874Z,100780.59
2023-04-25T19:09:40.838Z,100797.66
2023-04-25T19:12:26.013Z,100793.16
2023-04-25T19:15:11.609Z,100796.59
2023-04-25T19:17:59.887Z,100801.00
2023-04-25T19:20:45.337Z,100798.31
2023-04-25T19:23:30.372Z,100807.06
2023-04-25T19:26:15.906Z,100804.94
2023-04-25T19:29:03.864Z,100819.88
2023-04-25T19:31:49.449Z,100817.56
2023-04-25T19:34:34.785Z,100823.47
2023-04-25T19:37:20.548Z,100828.13
2023-04-25T19:40:06.745Z,100824.81
2023-04-25T19:42:52.176Z,100838.50
2023-04-25T19:45:37.479Z,100842.75
2023-04-25T19:48:22.730Z,100850.94
2023-04-25T19:51:08.211Z,100851.28
2023-04-25T19:53:54.132Z,100860.00
2023-04-25T19:56:39.290Z,100862.38
2023-04-25T19:59:24.414Z,100862.16
2023-04-25T20:02:09.465Z,100872.41
2023-04-25T20:04:54.813Z,100883.75
2023-04-25T20:07:40.176Z,100887.78
2023-04-25T20:10:25.553Z,100901.66
2023-04-25T20:13:11.076Z,100892.84
2023-04-25T20:15:56.485Z,100893.78
2023-04-25T20:18:41.758Z,100904.81
2023-04-25T20:21:26.926Z,100910.00
2023-04-25T20:24:12.263Z,100920.75
2023-04-25T20:26:58.154Z,100921.09
2023-04-25T20:29:43.242Z,100923.91
2023-04-25T20:32:30.545Z,100934.25
2023-04-25T20:35:15.856Z,100935.66
2023-04-25T20:38:00.712Z,100934.06
2023-04-25T20:40:46.192Z,100940.19
2023-04-25T20:43:31.848Z,100952.00
2023-04-25T20:46:17.026Z,100964.47
2023-04-25T20:49:02.439Z,100968.50
2023-04-25T20:51:47.731Z,100979.97
2023-04-25T20:54:32.690Z,100976.19
2023-04-25T20:57:17.654Z,100969.78
2023-04-25T21:00:03.472Z,100970.34
2023-04-25T21:02:48.959Z,100975.94
2023-04-25T21:05:34.576Z,100979.91
2023-04-25T21:08:19.718Z,100972.13
2023-04-25T21:11:04.964Z,100970.97
2023-04-25T21:13:50.377Z,100974.19
2023-04-25T21:16:35.860Z,100977.94
2023-04-25T21:19:21.259Z,100982.91
2023-04-25T21:22:06.569Z,100988.47
2023-04-25T21:24:51.500Z,100990.56
2023-04-25T21:27:36.988Z,100986.88
2023-04-25T21:30:23.971Z,100979.63
2023-04-25T21:33:09.207Z,100979.69
2023-04-25T21:35:54.482Z,100987.78
2023-04-25T21:38:39.677Z,100981.28
2023-04-25T21:41:24.960Z,100981.56
2023-04-25T21:44:10.064Z,100979.22
2023-04-25T21:46:55.430Z,100972.38
2023-04-25T21:49:40.577Z,100976.16
2023-04-25T21:52:26.566Z,100986.78
2023-04-25T21:55:11.895Z,100983.63
2023-04-25T21:57:57.442Z,100977.31
2023-04-25T22:00:42.874Z,100987.72
2023-04-25T22:03:28.422Z,100987.72
2023-04-25T22:06:13.657Z,100992.63
2023-04-25T22:08:58.762Z,100991.41
2023-04-25T22:11:44.066Z,101003.72
2023-04-25T22:14:29.726Z,100993.69
2023-04-25T22:17:15.169Z,100999.50
2023-04-25T22:20:00.949Z,101007.94
2023-04-25T22:22:46.379Z,101001.38
2023-04-25T22:25:32.017Z,101007.88
2023-04-25T22:28:17.426Z,101009.38
2023-04-25T22:31:02.770Z,101018.16
2023-04-25T22:33:48.333Z,101012.13
2023-04-25T22:36:34.151Z,101018.06
2023-04-25T22:39:19.355Z,101024.44
2023-04-25T22:42:04.385Z,101033.91
2023-04-25T22:44:49.812Z,101041.47
2023-04-25T22:47:36.391Z,101040.75
2023-04-25T22:50:21.416Z,101056.56
2023-04-25T22:53:09.684Z,101055.97
2023-04-25T22:55:55.822Z,101061.63
2023-04-25T22:58:40.780Z,101069.50
2023-04-25T23:01:25.783Z,101067.00
2023-04-25T23:04:11.363Z,101064.50
2023-04-25T23:06:57.247Z,101060.81
2023-04-25T23:09:42.783Z,101054.22
2023-04-25T23:12:28.018Z,101054.25
2023-04-25T23:15:13.034Z,101045.53
2023-04-25T23:17:58.454Z,101060.31
2023-04-25T23:20:43.550Z,101053.34
2023-04-25T23:23:28.852Z,101066.56
2023-04-25T23:26:14.185Z,101058.78
2023-04-25T23:28:59.779Z,101070.53
2023-04-25T23:31:45.049Z,101061.00
2023-04-25T23:34:30.856Z,101068.66
2023-04-25T23:37:16.075Z,101059.94
2023-04-25T23:40:01.598Z,101069.13
2023-04-25T23:42:46.686Z,101060.81
2023-04-25T23:45:32.032Z,101069.78
2023-04-25T23:48:17.269Z,101068.78
2023-04-25T23:51:02.422Z,101073.53
2023-04-25T23:53:47.504Z,101059.53
2023-04-25T23:56:32.979Z,101060.75
2023-04-25T23:59:18.574Z,101063.72
